createdAt,value
2018-07-10T00:02:26.426Z,6.30
2018-07-10T00:07:05.306Z,7.13
2018-07-10T00:10:39.251Z,7.70
2018-07-10T00:13:07.520Z,6.30
2018-07-10T00:15:35.262Z,5.90
2018-07-10T00:18:03.470Z,7.47
2018-07-10T00:20:31.219Z,6.30
2018-07-10T00:22:59.292Z,7.03
2018-07-10T00:25:27.073Z,7.87
2018-07-10T00:27:54.826Z,8.10
2018-07-10T00:30:22.602Z,7.60
2018-07-10T00:32:50.360Z,7.93
2018-07-10T00:35:18.210Z,7.73
2018-07-10T00:37:51.314Z,8.97
2018-07-10T00:40:19.175Z,8.73
2018-07-10T00:42:46.960Z,8.13
2018-07-10T00:45:14.736Z,8.33
2018-07-10T00:47:42.472Z,8.90
2018-07-10T00:50:10.218Z,7.57
2018-07-10T00:52:37.995Z,7.83
2018-07-10T00:55:05.774Z,8.97
2018-07-10T00:57:33.959Z,9.23
2018-07-10T01:00:02.252Z,8.63
2018-07-10T01:02:30.069Z,9.17
2018-07-10T01:04:57.771Z,9.73
2018-07-10T01:07:25.603Z,9.10
2018-07-10T01:09:53.301Z,9.27
2018-07-10T01:12:21.188Z,8.90
2018-07-10T01:14:49.012Z,9.17
2018-07-10T01:17:16.773Z,9.20
2018-07-10T01:19:44.537Z,8.37
2018-07-10T01:22:12.354Z,8.40
2018-07-10T01:24:40.148Z,8.60
2018-07-10T01:27:07.908Z,9.10
2018-07-10T01:29:40.876Z,8.53
2018-07-10T01:32:08.681Z,8.77
2018-07-10T01:34:36.462Z,7.90
2018-07-10T01:37:04.291Z,10.03
2018-07-10T01:39:32.182Z,8.70
2018-07-10T01:41:59.969Z,9.60
2018-07-10T01:44:27.727Z,8.47
2018-07-10T01:46:55.484Z,8.50
2018-07-10T01:49:23.279Z,8.50
2018-07-10T01:51:51.008Z,8.80
2018-07-10T01:54:18.752Z,10.07
2018-07-10T01:56:46.559Z,8.47
2018-07-10T01:59:15.020Z,9.80
2018-07-10T02:01:42.887Z,8.47
2018-07-10T02:04:10.634Z,8.90
2018-07-10T02:06:38.411Z,10.33
2018-07-10T02:09:06.188Z,9.60
2018-07-10T02:11:33.965Z,9.10
2018-07-10T02:14:01.766Z,8.70
2018-07-10T02:16:29.566Z,9.37
2018-07-10T02:18:57.349Z,10.43
2018-07-10T02:21:25.174Z,9.83
2018-07-10T02:23:53.423Z,9.27
2018-07-10T02:26:23.627Z,9.60
2018-07-10T02:28:52.398Z,8.93
2018-07-10T02:31:20.279Z,9.53
2018-07-10T02:33:48.095Z,9.20
2018-07-10T02:36:15.883Z,10.10
2018-07-10T02:38:45.322Z,8.90
2018-07-10T02:41:13.458Z,10.33
2018-07-10T02:43:41.459Z,9.93
2018-07-10T02:46:09.263Z,9.80
2018-07-10T02:48:37.280Z,9.90
2018-07-10T02:51:06.295Z,10.30
2018-07-10T02:53:34.870Z,10.07
2018-07-10T02:56:02.719Z,9.77
2018-07-10T02:58:32.420Z,8.40
2018-07-10T03:01:00.192Z,10.00
2018-07-10T03:03:28.008Z,10.00
2018-07-10T03:05:55.813Z,10.23
2018-07-10T03:08:23.593Z,9.90
2018-07-10T03:10:51.368Z,10.10
2018-07-10T03:13:19.171Z,10.57
2018-07-10T03:15:46.995Z,9.90
2018-07-10T03:18:15.819Z,9.70
2018-07-10T03:20:44.495Z,10.70
2018-07-10T03:23:12.211Z,10.50
2018-07-10T03:25:40.032Z,11.10
2018-07-10T03:28:07.777Z,10.20
2018-07-10T03:30:35.539Z,10.17
2018-07-10T03:33:03.306Z,10.37
2018-07-10T03:35:31.064Z,10.00
2018-07-10T03:37:58.842Z,10.47
2018-07-10T03:40:27.225Z,9.60
2018-07-10T03:42:55.002Z,9.90
2018-07-10T03:45:22.834Z,10.80
2018-07-10T03:47:50.608Z,10.00
2018-07-10T03:50:18.377Z,9.50
2018-07-10T03:52:46.200Z,9.40
2018-07-10T03:55:17.525Z,10.20
2018-07-10T03:57:45.343Z,10.53
2018-07-10T04:00:14.468Z,10.43
2018-07-10T04:02:45.602Z,9.33
2018-07-10T04:05:13.474Z,10.77
2018-07-10T04:07:41.255Z,10.10
2018-07-10T04:10:09.057Z,9.50
2018-07-10T04:12:37.861Z,10.23
2018-07-10T04:15:06.029Z,9.67
2018-07-10T04:17:39.827Z,9.60
2018-07-10T04:20:08.303Z,10.10
2018-07-10T04:22:37.853Z,9.70
2018-07-10T04:25:05.622Z,9.53
2018-07-10T04:28:41.478Z,10.20
2018-07-10T04:31:16.172Z,10.20
2018-07-10T04:33:44.374Z,10.10
2018-07-10T04:36:12.156Z,10.67
2018-07-10T04:38:39.913Z,11.43
2018-07-10T04:41:10.859Z,10.27
2018-07-10T04:43:41.512Z,10.60
2018-07-10T04:46:09.283Z,10.80
2018-07-10T04:48:39.729Z,11.27
2018-07-10T04:51:17.203Z,10.90
2018-07-10T04:53:46.365Z,11.20
2018-07-10T04:56:14.417Z,11.43
2018-07-10T04:58:45.385Z,11.07
2018-07-10T05:01:14.365Z,10.47
2018-07-10T05:03:42.131Z,11.73
2018-07-10T05:06:09.943Z,10.83
2018-07-10T05:08:42.652Z,11.17
2018-07-10T05:11:38.225Z,11.27
2018-07-10T05:14:28.151Z,11.63
2018-07-10T05:16:55.913Z,11.23
2018-07-10T05:19:23.714Z,11.30
2018-07-10T05:21:51.556Z,12.40
2018-07-10T05:24:19.375Z,12.03
2018-07-10T05:26:47.315Z,12.40
2018-07-10T05:29:15.213Z,11.43
2018-07-10T05:31:43.084Z,13.43
2018-07-10T05:34:10.914Z,11.70
2018-07-10T05:36:38.703Z,12.50
2018-07-10T05:39:07.483Z,13.20
2018-07-10T05:41:42.514Z,13.00
2018-07-10T05:44:10.388Z,13.47
2018-07-10T05:46:38.256Z,11.90
2018-07-10T05:49:06.612Z,12.50
2018-07-10T05:51:39.743Z,12.07
2018-07-10T05:54:08.631Z,11.80
2018-07-10T05:56:36.879Z,12.50
2018-07-10T05:59:06.293Z,13.00
2018-07-10T06:01:34.983Z,13.00
2018-07-10T06:04:03.032Z,13.07
2018-07-10T06:06:30.942Z,14.03
2018-07-10T06:08:59.076Z,13.00
2018-07-10T06:11:26.952Z,14.00
2018-07-10T06:13:55.343Z,12.60
2018-07-10T06:16:23.384Z,13.50
2018-07-10T06:18:52.410Z,12.00
2018-07-10T06:21:21.081Z,13.30
2018-07-10T06:23:49.082Z,11.07
2018-07-10T06:26:17.228Z,11.77
2018-07-10T06:29:04.169Z,12.20
2018-07-10T06:31:38.569Z,11.30
2018-07-10T06:34:06.572Z,11.57
2018-07-10T06:36:37.076Z,11.43
2018-07-10T06:39:07.260Z,10.77
2018-07-10T06:41:36.323Z,12.17
2018-07-10T06:44:04.348Z,13.17
2018-07-10T06:46:38.470Z,12.77
2018-07-10T06:49:12.569Z,13.00
2018-07-10T06:51:40.681Z,12.73
2018-07-10T06:54:08.723Z,11.23
2018-07-10T06:56:36.737Z,12.50
2018-07-10T06:59:04.655Z,11.60
2018-07-10T07:01:32.646Z,12.37
2018-07-10T07:04:01.814Z,12.40
2018-07-10T07:06:30.583Z,12.60
2018-07-10T07:08:58.696Z,13.17
2018-07-10T07:11:27.054Z,12.20
2018-07-10T07:13:55.031Z,12.30
2018-07-10T07:16:23.495Z,12.20
2018-07-10T07:18:51.665Z,10.90
2018-07-10T07:21:19.381Z,10.87
2018-07-10T07:23:47.269Z,12.27
2018-07-10T07:26:15.317Z,13.40
2018-07-10T07:28:43.045Z,12.63
2018-07-10T07:31:10.792Z,13.70
2018-07-10T07:33:38.448Z,11.70
2018-07-10T07:36:06.153Z,11.67
2018-07-10T07:38:33.892Z,11.30
2018-07-10T07:41:01.679Z,11.47
2018-07-10T07:43:29.421Z,11.10
2018-07-10T07:45:57.198Z,11.70
2018-07-10T07:48:24.949Z,12.13
2018-07-10T07:50:52.730Z,11.33
2018-07-10T07:53:20.480Z,11.20
2018-07-10T07:55:48.789Z,12.30
2018-07-10T07:58:16.691Z,10.17
2018-07-10T08:00:44.390Z,11.30
2018-07-10T08:03:12.186Z,11.07
2018-07-10T08:05:39.926Z,10.93
2018-07-10T08:08:07.789Z,10.73
2018-07-10T08:10:35.649Z,11.83
2018-07-10T08:13:03.458Z,11.73
2018-07-10T08:15:31.263Z,10.00
2018-07-10T08:17:59.004Z,10.40
2018-07-10T08:20:26.742Z,11.07
2018-07-10T08:22:54.494Z,9.73
2018-07-10T08:25:22.723Z,10.23
2018-07-10T08:27:50.766Z,10.80
2018-07-10T08:30:18.858Z,11.37
2018-07-10T08:32:46.671Z,11.10
2018-07-10T08:35:14.471Z,19.50
2018-07-10T08:37:42.193Z,12.87
2018-07-10T08:40:09.897Z,29.30
2018-07-10T08:42:37.835Z,17.20
2018-07-10T08:45:05.626Z,12.30
2018-07-10T08:47:33.713Z,13.43
2018-07-10T08:50:01.499Z,14.80
2018-07-10T08:52:29.324Z,14.00
2018-07-10T08:54:57.023Z,11.57
2018-07-10T08:57:24.766Z,10.53
2018-07-10T08:59:53.314Z,11.33
2018-07-10T09:02:20.973Z,10.70
2018-07-10T09:04:48.698Z,9.90
2018-07-10T09:07:16.509Z,10.83
2018-07-10T09:09:44.354Z,10.20
2018-07-10T09:12:12.097Z,9.73
2018-07-10T09:14:39.822Z,8.13
2018-07-10T09:17:07.570Z,7.77
2018-07-10T09:19:35.341Z,8.57
2018-07-10T09:22:06.861Z,7.37
2018-07-10T09:24:35.621Z,7.27
2018-07-10T09:27:04.365Z,7.40
2018-07-10T09:29:32.121Z,7.83
2018-07-10T09:31:59.903Z,7.00
2018-07-10T09:34:27.570Z,8.00
2018-07-10T09:36:55.318Z,7.30
2018-07-10T09:39:23.060Z,7.67
2018-07-10T09:41:50.749Z,6.70
2018-07-10T09:44:18.512Z,6.40
2018-07-10T09:46:46.278Z,7.47
2018-07-10T09:49:14.019Z,6.40
2018-07-10T09:51:41.804Z,6.90
2018-07-10T09:54:09.770Z,5.70
2018-07-10T09:56:37.551Z,7.00
2018-07-10T09:59:05.427Z,6.70
2018-07-10T10:01:34.400Z,7.37
2018-07-10T10:04:02.985Z,7.10
2018-07-10T10:06:30.738Z,7.40
2018-07-10T10:08:58.456Z,5.90
2018-07-10T10:11:26.226Z,6.47
2018-07-10T10:13:53.961Z,6.50
2018-07-10T10:16:21.648Z,6.23
2018-07-10T10:18:49.872Z,6.80
2018-07-10T10:21:18.193Z,6.70
2018-07-10T10:23:45.921Z,6.37
2018-07-10T10:26:14.032Z,6.00
2018-07-10T10:28:42.018Z,6.27
2018-07-10T10:31:09.742Z,6.20
2018-07-10T10:33:37.514Z,5.47
2018-07-10T10:36:05.241Z,5.80
2018-07-10T10:38:33.451Z,6.57
2018-07-10T10:41:02.552Z,5.40
2018-07-10T10:43:30.297Z,5.70
2018-07-10T10:45:58.042Z,5.90
2018-07-10T10:48:25.844Z,5.83
2018-07-10T10:50:53.589Z,5.80
2018-07-10T10:53:21.937Z,6.00
2018-07-10T10:55:49.651Z,6.00
2018-07-10T10:58:18.278Z,5.37
2018-07-10T11:00:46.018Z,4.93
2018-07-10T11:03:13.767Z,5.60
2018-07-10T11:05:42.714Z,5.33
2018-07-10T11:08:10.514Z,5.10
2018-07-10T11:10:38.253Z,5.23
2018-07-10T11:13:06.362Z,5.70
2018-07-10T11:15:39.178Z,5.50
2018-07-10T11:18:08.389Z,5.87
2018-07-10T11:22:44.223Z,6.10
2018-07-10T11:25:11.969Z,4.80
2018-07-10T11:27:45.961Z,4.93
2018-07-10T11:30:13.754Z,5.50
2018-07-10T11:32:41.533Z,5.37
2018-07-10T11:35:09.257Z,5.10
2018-07-10T11:37:37.397Z,5.83
2018-07-10T11:40:05.122Z,4.63
2018-07-10T11:42:33.092Z,5.60
2018-07-10T11:45:00.795Z,5.43
2018-07-10T11:47:28.621Z,5.20
2018-07-10T11:49:56.366Z,5.13
2018-07-10T11:52:24.141Z,5.57
2018-07-10T11:54:51.915Z,5.37
2018-07-10T11:57:19.687Z,4.83
2018-07-10T11:59:47.437Z,5.50
2018-07-10T12:02:15.335Z,5.20
2018-07-10T12:04:43.107Z,5.60
2018-07-10T12:07:10.975Z,5.13
2018-07-10T12:10:41.957Z,5.50
2018-07-10T12:13:09.719Z,5.73
2018-07-10T12:15:37.522Z,5.37
2018-07-10T12:18:05.286Z,5.03
2018-07-10T12:20:42.627Z,4.70
2018-07-10T12:23:11.104Z,5.83
2018-07-10T12:25:41.057Z,5.00
2018-07-10T12:28:09.880Z,5.30
2018-07-10T12:30:37.732Z,5.20
2018-07-10T12:33:06.114Z,5.70
2018-07-10T12:35:33.808Z,5.77
2018-07-10T12:38:01.638Z,5.70
2018-07-10T12:40:29.537Z,5.27
2018-07-10T12:42:57.256Z,5.30
2018-07-10T12:45:29.587Z,5.93
2018-07-10T12:48:10.191Z,5.50
2018-07-10T12:50:37.993Z,5.90
2018-07-10T12:53:05.783Z,5.43
2018-07-10T12:55:34.852Z,5.43
2018-07-10T12:58:02.645Z,5.20
2018-07-10T13:00:32.018Z,5.60
2018-07-10T13:02:59.873Z,5.53
2018-07-10T13:05:28.178Z,5.37
2018-07-10T13:07:56.029Z,6.30
2018-07-10T13:10:23.913Z,5.60
2018-07-10T13:12:51.742Z,5.63
2018-07-10T13:15:19.455Z,5.73
2018-07-10T13:17:49.729Z,5.90
2018-07-10T13:20:17.713Z,6.10
2018-07-10T13:22:45.664Z,5.70
2018-07-10T13:25:13.556Z,5.80
2018-07-10T13:27:41.308Z,6.00
2018-07-10T13:30:09.081Z,6.27
2018-07-10T13:32:36.854Z,5.80
2018-07-10T13:35:04.696Z,5.90
2018-07-10T13:37:32.527Z,5.87
2018-07-10T13:40:00.952Z,5.97
2018-07-10T13:42:34.715Z,6.20
2018-07-10T13:45:02.504Z,6.50
2018-07-10T13:47:30.293Z,5.80
2018-07-10T13:49:58.029Z,6.03
2018-07-10T13:52:26.039Z,5.40
2018-07-10T13:54:53.924Z,6.60
2018-07-10T13:57:21.887Z,6.40
2018-07-10T13:59:49.860Z,6.53
2018-07-10T14:02:17.695Z,5.93
2018-07-10T14:04:45.677Z,5.67
2018-07-10T14:07:13.746Z,6.20
2018-07-10T14:09:41.560Z,6.43
2018-07-10T14:12:09.613Z,6.37
2018-07-10T14:14:37.548Z,6.70
2018-07-10T14:17:05.725Z,6.70
2018-07-10T14:19:33.721Z,6.50
2018-07-10T14:22:01.670Z,6.33
2018-07-10T14:24:29.861Z,6.17
2018-07-10T14:26:57.817Z,6.30
2018-07-10T14:29:25.770Z,5.50
2018-07-10T14:31:53.642Z,6.50
2018-07-10T14:34:21.628Z,6.47
2018-07-10T14:36:49.489Z,6.10
2018-07-10T14:39:17.520Z,7.17
2018-07-10T14:41:45.497Z,6.43
2018-07-10T14:44:13.623Z,6.90
2018-07-10T14:46:41.454Z,6.60
2018-07-10T14:49:09.641Z,7.13
2018-07-10T14:51:38.818Z,6.80
2018-07-10T14:54:06.709Z,7.27
2018-07-10T14:56:34.792Z,5.90
2018-07-10T14:59:02.770Z,6.30
2018-07-10T15:01:30.832Z,5.60
2018-07-10T15:03:58.881Z,6.07
2018-07-10T15:06:26.862Z,6.70
2018-07-10T15:08:54.829Z,6.67
2018-07-10T15:11:22.707Z,6.70
2018-07-10T15:13:55.992Z,6.40
2018-07-10T15:16:23.869Z,7.07
2018-07-10T15:18:52.637Z,6.70
2018-07-10T15:21:21.971Z,6.40
2018-07-10T15:23:49.706Z,5.90
2018-07-10T15:26:17.471Z,6.63
2018-07-10T15:28:46.200Z,6.33
2018-07-10T15:31:13.948Z,5.70
2018-07-10T15:33:41.808Z,7.00
2018-07-10T15:36:09.650Z,6.30
2018-07-10T15:38:37.396Z,6.27
2018-07-10T15:41:05.205Z,5.70
2018-07-10T15:43:33.177Z,6.17
2018-07-10T15:46:01.123Z,6.90
2018-07-10T15:48:28.924Z,5.57
2018-07-10T15:50:56.723Z,6.63
2018-07-10T15:53:24.535Z,6.70
2018-07-10T15:55:52.307Z,7.13
2018-07-10T15:58:20.145Z,6.30
2018-07-10T16:00:47.976Z,6.87
2018-07-10T16:03:15.813Z,7.63
2018-07-10T16:05:44.396Z,6.20
2018-07-10T16:08:15.711Z,6.70
2018-07-10T16:10:45.652Z,6.73
2018-07-10T16:13:13.429Z,6.90
2018-07-10T16:15:41.285Z,7.10
2018-07-10T16:18:09.030Z,6.50
2018-07-10T16:20:38.109Z,6.40
2018-07-10T16:23:06.163Z,6.70
2018-07-10T16:25:34.789Z,6.40
2018-07-10T16:28:13.854Z,6.00
2018-07-10T16:30:41.598Z,6.13
2018-07-10T16:33:09.379Z,6.37
2018-07-10T16:35:37.146Z,6.00
2018-07-10T16:38:04.980Z,6.70
2018-07-10T16:40:32.951Z,6.70
2018-07-10T16:43:01.028Z,7.57
2018-07-10T16:45:34.151Z,6.73
2018-07-10T16:50:10.260Z,7.07
2018-07-10T16:52:57.071Z,7.23
2018-07-10T16:55:25.101Z,7.80
2018-07-10T16:57:53.098Z,8.07
2018-07-10T17:00:21.319Z,8.93
2018-07-10T17:02:49.695Z,8.57
2018-07-10T17:05:17.668Z,8.57
2018-07-10T17:07:45.458Z,7.93
2018-07-10T17:10:13.713Z,8.20
2018-07-10T17:12:41.788Z,8.13
2018-07-10T17:15:09.788Z,8.37
2018-07-10T17:17:37.754Z,8.30
2018-07-10T17:20:09.882Z,7.77
2018-07-10T17:22:37.822Z,7.00
2018-07-10T17:25:05.950Z,7.70
2018-07-10T17:27:35.233Z,7.80
2018-07-10T17:30:04.368Z,7.53
2018-07-10T17:32:32.688Z,7.33
2018-07-10T17:35:01.241Z,7.30
2018-07-10T17:37:29.561Z,7.57
2018-07-10T17:39:59.055Z,7.47
2018-07-10T17:42:26.836Z,8.13
2018-07-10T17:44:54.513Z,7.80
2018-07-10T17:47:22.265Z,7.43
2018-07-10T17:49:50.061Z,7.63
2018-07-10T17:52:17.837Z,6.50
2018-07-10T17:54:45.671Z,7.20
2018-07-10T17:57:13.423Z,7.53
2018-07-10T17:59:41.264Z,7.03
2018-07-10T18:02:09.349Z,6.90
2018-07-10T18:04:37.132Z,6.23
2018-07-10T18:07:04.882Z,6.37
2018-07-10T18:09:32.685Z,6.83
2018-07-10T18:12:00.438Z,7.00
2018-07-10T18:14:28.230Z,7.10
2018-07-10T18:16:56.095Z,7.17
2018-07-10T18:19:24.131Z,6.20
2018-07-10T18:21:52.039Z,6.40
2018-07-10T18:24:19.908Z,5.93
2018-07-10T18:26:47.662Z,6.00
2018-07-10T18:29:15.425Z,6.20
2018-07-10T18:31:43.210Z,5.50
2018-07-10T18:34:11.136Z,4.97
2018-07-10T18:36:39.227Z,4.03
2018-07-10T18:39:07.097Z,2.57
2018-07-10T18:41:35.077Z,1.90
2018-07-10T18:44:02.894Z,2.70
2018-07-10T18:46:30.987Z,2.30
2018-07-10T18:48:58.990Z,1.60
2018-07-10T18:51:26.859Z,1.90
2018-07-10T18:53:54.935Z,1.83
2018-07-10T18:56:22.768Z,1.57
2018-07-10T18:58:55.851Z,1.60
2018-07-10T19:01:26.373Z,1.23
2018-07-10T19:03:54.158Z,1.97
2018-07-10T19:06:22.774Z,1.37
2018-07-10T19:08:50.612Z,1.17
2018-07-10T19:11:20.752Z,1.97
2018-07-10T19:13:48.602Z,1.13
2018-07-10T19:16:16.343Z,1.50
2018-07-10T19:18:44.251Z,1.07
2018-07-10T19:21:20.142Z,1.07
2018-07-10T19:23:49.074Z,1.00
2018-07-10T19:26:17.955Z,1.13
2018-07-10T19:28:46.038Z,0.80
2018-07-10T19:31:15.737Z,0.90
2018-07-10T19:33:44.836Z,1.00
2018-07-10T19:36:12.674Z,1.00
2018-07-10T19:38:40.903Z,1.00
2018-07-10T19:41:09.329Z,1.20
2018-07-10T19:43:37.222Z,1.70
2018-07-10T19:46:04.980Z,1.03
2018-07-10T19:48:32.830Z,1.10
2018-07-10T19:51:00.602Z,1.07
2018-07-10T19:53:28.596Z,0.97
2018-07-10T19:55:56.338Z,0.73
2018-07-10T19:58:30.770Z,0.90
2018-07-10T20:01:07.953Z,1.10
2018-07-10T20:03:39.523Z,0.83
2018-07-10T20:06:10.404Z,1.40
2018-07-10T20:08:39.086Z,1.10
2018-07-10T20:11:08.559Z,1.00
2018-07-10T20:13:41.213Z,0.90
2018-07-10T20:16:10.858Z,1.23
2018-07-10T20:18:50.535Z,1.10
2018-07-10T20:21:22.742Z,1.10
2018-07-10T20:23:51.651Z,0.97
2018-07-10T20:27:02.384Z,1.27
2018-07-10T20:29:36.990Z,1.40
2018-07-10T20:32:06.287Z,2.50
2018-07-10T20:34:40.132Z,1.40
2018-07-10T20:37:11.700Z,1.77
2018-07-10T20:39:39.462Z,1.90
2018-07-10T20:42:07.247Z,1.67
2018-07-10T20:45:07.058Z,1.77
2018-07-10T20:47:45.494Z,2.03
2018-07-10T20:50:15.582Z,1.80
2018-07-10T20:52:53.287Z,2.40
2018-07-10T20:55:21.570Z,1.90
2018-07-10T20:58:22.226Z,2.30
2018-07-10T21:00:53.229Z,2.27
2018-07-10T21:03:24.391Z,2.00
2018-07-10T21:05:52.678Z,3.07
2018-07-10T21:08:35.879Z,2.23
2018-07-10T21:11:14.393Z,2.20
2018-07-10T21:13:47.505Z,2.20
2018-07-10T21:16:19.252Z,2.20
2018-07-10T21:18:54.374Z,2.77
2018-07-10T21:21:28.662Z,2.50
2018-07-10T21:24:13.180Z,2.50
2018-07-10T21:26:44.792Z,2.53
2018-07-10T21:30:17.639Z,2.53
2018-07-10T21:32:49.800Z,2.60
2018-07-10T21:35:18.231Z,2.80
2018-07-10T21:37:51.615Z,3.20
2018-07-10T21:40:24.538Z,2.90
2018-07-10T21:42:57.847Z,2.93
2018-07-10T21:45:57.132Z,3.40
2018-07-10T21:48:30.907Z,2.70
2018-07-10T21:50:58.738Z,2.90
2018-07-10T21:53:26.587Z,3.10
2018-07-10T21:55:54.437Z,2.87
2018-07-10T21:58:22.940Z,3.50
2018-07-10T22:02:00.020Z,2.80
2018-07-10T22:04:30.639Z,3.17
2018-07-10T22:06:59.652Z,3.70
2018-07-10T22:09:28.495Z,3.83
2018-07-10T22:11:56.957Z,3.57
2018-07-10T22:14:24.788Z,4.03
2018-07-10T22:16:52.669Z,4.07
2018-07-10T22:19:25.671Z,4.10
2018-07-10T22:21:54.414Z,4.37
2018-07-10T22:24:22.899Z,3.83
2018-07-10T22:26:50.795Z,3.90
2018-07-10T22:29:22.797Z,3.70
2018-07-10T22:31:55.839Z,3.83
2018-07-10T22:34:23.721Z,3.43
2018-07-10T22:36:51.454Z,3.40
2018-07-10T22:39:19.335Z,4.10
2018-07-10T22:41:47.723Z,4.10
2018-07-10T22:44:15.486Z,4.40
2018-07-10T22:46:43.269Z,4.43
2018-07-10T22:49:12.377Z,4.60
2018-07-10T22:51:40.200Z,4.37
2018-07-10T22:54:07.989Z,4.30
2018-07-10T22:56:35.867Z,4.80
2018-07-10T22:59:04.120Z,3.90
2018-07-10T23:01:32.297Z,4.27
2018-07-10T23:04:00.078Z,4.23
2018-07-10T23:06:27.813Z,4.73
2018-07-10T23:08:55.680Z,4.73
2018-07-10T23:11:23.470Z,4.47
2018-07-10T23:13:51.190Z,4.90
2018-07-10T23:16:18.931Z,4.00
2018-07-10T23:18:47.773Z,4.87
2018-07-10T23:21:17.886Z,4.40
2018-07-10T23:23:45.679Z,4.77
2018-07-10T23:26:14.025Z,4.30
2018-07-10T23:28:41.821Z,4.70
2018-07-10T23:31:09.663Z,4.90
2018-07-10T23:33:38.248Z,4.07
2018-07-10T23:36:06.078Z,4.70
2018-07-10T23:38:41.759Z,4.60
2018-07-10T23:41:14.851Z,4.53
2018-07-10T23:43:44.163Z,4.60
2018-07-10T23:46:15.658Z,4.40
2018-07-10T23:48:43.879Z,5.47
2018-07-10T23:51:11.586Z,5.07
2018-07-10T23:53:49.751Z,4.80
2018-07-10T23:56:18.231Z,4.57
2018-07-10T23:58:46.520Z,4.43
